createdAt,value
2022-10-06T00:00:54.518Z,100923.00
2022-10-06T00:03:24.688Z,100923.00
2022-10-06T00:05:51.631Z,100935.00
2022-10-06T00:08:18.859Z,100930.00
2022-10-06T00:10:45.669Z,100945.00
2022-10-06T00:13:12.526Z,100936.00
2022-10-06T00:15:39.608Z,100947.00
2022-10-06T00:18:06.417Z,100943.00
2022-10-06T00:20:33.296Z,100944.00
2022-10-06T00:23:00.258Z,100959.00
2022-10-06T00:25:28.243Z,100970.00
2022-10-06T00:27:55.485Z,100969.00
2022-10-06T00:30:27.243Z,100985.00
2022-10-06T00:32:59.302Z,100985.00
2022-10-06T00:35:28.154Z,100996.00
2022-10-06T00:37:55.067Z,100992.00
2022-10-06T00:40:22.111Z,100987.00
2022-10-06T00:42:54.901Z,101004.00
2022-10-06T00:45:26.806Z,101000.00
2022-10-06T00:47:55.950Z,101022.00
2022-10-06T00:50:22.802Z,101028.00
2022-10-06T00:52:50.120Z,101030.00
2022-10-06T00:55:17.075Z,101024.00
2022-10-06T00:57:44.129Z,101034.00
2022-10-06T01:00:11.515Z,101029.00
2022-10-06T01:02:57.088Z,101022.00
2022-10-06T01:05:30.986Z,101035.00
2022-10-06T01:07:57.904Z,101035.00
2022-10-06T01:10:24.789Z,101031.00
2022-10-06T01:12:52.165Z,101048.00
2022-10-06T01:15:21.503Z,101023.00
2022-10-06T01:17:56.071Z,101032.00
2022-10-06T01:20:23.340Z,101021.00
2022-10-06T01:22:54.536Z,101023.00
2022-10-06T01:25:22.173Z,101034.00
2022-10-06T01:27:53.611Z,101035.00
2022-10-06T01:30:52.045Z,101043.00
2022-10-06T01:33:21.020Z,101026.00
2022-10-06T01:35:52.642Z,101055.00
2022-10-06T01:38:20.302Z,101059.00
2022-10-06T01:40:48.136Z,101078.00
2022-10-06T01:43:14.994Z,101069.00
2022-10-06T01:45:41.884Z,101087.00
2022-10-06T01:48:08.672Z,101083.00
2022-10-06T01:50:35.673Z,101085.00
2022-10-06T01:53:02.565Z,101099.00
2022-10-06T01:55:29.419Z,101113.00
2022-10-06T01:57:56.155Z,101095.00
2022-10-06T02:00:22.966Z,101102.00
2022-10-06T02:02:50.783Z,101110.00
2022-10-06T02:05:17.639Z,101121.00
2022-10-06T02:07:44.447Z,101144.00
2022-10-06T02:10:11.281Z,101141.00
2022-10-06T02:12:38.133Z,101140.00
2022-10-06T02:15:06.231Z,101159.00
2022-10-06T02:17:33.032Z,101159.00
2022-10-06T02:19:59.858Z,101155.00
2022-10-06T02:22:26.646Z,101165.00
2022-10-06T02:24:53.444Z,101167.00
2022-10-06T02:27:20.268Z,101153.00
2022-10-06T02:29:48.962Z,101148.00
2022-10-06T02:32:15.753Z,101164.00
2022-10-06T02:34:42.660Z,101173.00
2022-10-06T02:37:10.690Z,101156.00
2022-10-06T02:39:37.443Z,101176.00
2022-10-06T02:42:05.199Z,101163.00
2022-10-06T02:44:32.069Z,101171.00
2022-10-06T02:46:59.524Z,101168.00
2022-10-06T02:49:26.359Z,101169.00
2022-10-06T02:51:53.141Z,101165.00
2022-10-06T02:54:19.894Z,101172.00
2022-10-06T02:56:46.958Z,101181.00
2022-10-06T02:59:13.834Z,101184.00
2022-10-06T03:01:40.721Z,101184.00
2022-10-06T03:04:07.580Z,101188.00
2022-10-06T03:06:34.370Z,101198.00
2022-10-06T03:09:03.196Z,101199.00
2022-10-06T03:11:32.799Z,101206.00
2022-10-06T03:13:59.964Z,101197.00
2022-10-06T03:16:32.175Z,101207.00
2022-10-06T03:18:59.770Z,101212.00
2022-10-06T03:21:31.932Z,101206.00
2022-10-06T03:23:59.320Z,101216.00
2022-10-06T03:26:32.004Z,101218.00
2022-10-06T03:28:58.789Z,101215.00
2022-10-06T03:31:26.110Z,101231.00
2022-10-06T03:33:54.489Z,101233.00
2022-10-06T03:36:22.824Z,101228.00
2022-10-06T03:38:49.882Z,101242.00
2022-10-06T03:41:19.162Z,101245.00
2022-10-06T03:43:47.781Z,101263.00
2022-10-06T03:46:19.992Z,101271.00
2022-10-06T03:48:47.977Z,101268.00
2022-10-06T03:51:17.158Z,101274.00
2022-10-06T03:53:49.242Z,101280.00
2022-10-06T03:56:16.870Z,101286.00
2022-10-06T03:58:45.963Z,101287.00
2022-10-06T04:01:14.455Z,101297.00
2022-10-06T04:03:41.422Z,101313.00
2022-10-06T04:06:15.330Z,101318.00
2022-10-06T04:08:42.217Z,101304.00
2022-10-06T04:11:15.186Z,101319.00
2022-10-06T04:13:43.329Z,101324.00
2022-10-06T04:16:17.131Z,101316.00
2022-10-06T04:18:45.164Z,101325.00
2022-10-06T04:21:13.217Z,101326.00
2022-10-06T04:23:40.087Z,101334.00
2022-10-06T04:26:10.568Z,101333.00
2022-10-06T04:28:38.863Z,101323.00
2022-10-06T04:31:16.018Z,101333.00
2022-10-06T04:33:44.342Z,101334.00
2022-10-06T04:36:13.267Z,101333.00
2022-10-06T04:38:40.179Z,101351.00
2022-10-06T04:41:15.334Z,101352.00
2022-10-06T04:43:42.525Z,101366.00
2022-10-06T04:46:30.642Z,101363.00
2022-10-06T04:48:57.211Z,101376.00
2022-10-06T04:51:25.556Z,101370.00
2022-10-06T04:53:52.511Z,101401.00
2022-10-06T04:56:28.099Z,101391.00
2022-10-06T04:58:56.044Z,101397.00
2022-10-06T05:01:24.996Z,101413.00
2022-10-06T05:03:56.394Z,101418.00
2022-10-06T05:06:25.739Z,101409.00
2022-10-06T05:08:58.398Z,101419.00
2022-10-06T05:11:26.266Z,101424.00
2022-10-06T05:13:57.330Z,101428.00
2022-10-06T05:16:25.762Z,101446.00
2022-10-06T05:18:52.741Z,101441.00
2022-10-06T05:21:22.215Z,101442.00
2022-10-06T05:23:49.239Z,101448.00
2022-10-06T05:26:21.325Z,101455.00
2022-10-06T05:28:48.414Z,101462.00
2022-10-06T05:31:26.971Z,101467.00
2022-10-06T05:33:54.859Z,101465.00
2022-10-06T05:36:24.160Z,101474.00
2022-10-06T05:38:50.991Z,101485.00
2022-10-06T05:41:24.066Z,101485.00
2022-10-06T05:43:51.383Z,101495.00
2022-10-06T05:46:24.989Z,101512.00
2022-10-06T05:48:55.552Z,101513.00
2022-10-06T05:51:30.023Z,101511.00
2022-10-06T05:53:58.192Z,101527.00
2022-10-06T05:56:29.552Z,101532.00
2022-10-06T05:58:58.046Z,101535.00
2022-10-06T06:01:30.158Z,101542.00
2022-10-06T06:04:03.173Z,101553.00
2022-10-06T06:06:41.450Z,101557.00
2022-10-06T06:09:09.314Z,101559.00
2022-10-06T06:11:38.484Z,101573.00
2022-10-06T06:14:12.836Z,101571.00
2022-10-06T06:16:41.083Z,101580.00
2022-10-06T06:19:09.237Z,101577.00
2022-10-06T06:21:36.245Z,101584.00
2022-10-06T06:24:03.990Z,101584.00
2022-10-06T06:26:33.309Z,101597.00
2022-10-06T06:29:04.065Z,101601.00
2022-10-06T06:31:33.235Z,101609.00
2022-10-06T06:34:02.698Z,101607.00
2022-10-06T06:36:35.826Z,101621.00
2022-10-06T06:39:05.401Z,101620.00
2022-10-06T06:41:34.643Z,101628.00
2022-10-06T06:44:01.724Z,101636.00
2022-10-06T06:46:31.890Z,101628.00
2022-10-06T06:49:04.431Z,101629.00
2022-10-06T06:51:33.248Z,101654.00
2022-10-06T06:54:02.386Z,101661.00
2022-10-06T06:56:32.101Z,101665.00
2022-10-06T06:58:58.881Z,101674.00
2022-10-06T07:01:25.671Z,101678.00
2022-10-06T07:03:58.407Z,101682.00
2022-10-06T07:06:28.791Z,101691.00
2022-10-06T07:08:57.952Z,101689.00
2022-10-06T07:11:32.805Z,101701.00
2022-10-06T07:14:01.670Z,101709.00
2022-10-06T07:16:56.134Z,101717.00
2022-10-06T07:19:41.413Z,101715.00
2022-10-06T07:22:26.991Z,101728.00
2022-10-06T07:25:07.393Z,101733.00
2022-10-06T07:27:37.406Z,101733.00
2022-10-06T07:30:05.787Z,101744.00
2022-10-06T07:32:32.969Z,101730.00
2022-10-06T07:35:00.731Z,101737.00
2022-10-06T07:37:28.968Z,101751.00
2022-10-06T07:39:55.776Z,101749.00
2022-10-06T07:42:22.563Z,101763.00
2022-10-06T07:45:09.990Z,101774.00
2022-10-06T07:47:39.561Z,101778.00
2022-10-06T07:50:08.120Z,101783.00
2022-10-06T07:52:39.369Z,101795.00
2022-10-06T07:55:07.176Z,101791.00
2022-10-06T07:57:35.583Z,101811.00
2022-10-06T08:00:07.326Z,101820.00
2022-10-06T08:02:35.886Z,101815.00
2022-10-06T08:05:04.258Z,101817.00
2022-10-06T08:07:31.397Z,101818.00
2022-10-06T08:09:58.222Z,101819.00
2022-10-06T08:12:34.683Z,101824.00
2022-10-06T08:15:06.172Z,101838.00
2022-10-06T08:17:36.517Z,101826.00
2022-10-06T08:20:09.344Z,101837.00
2022-10-06T08:22:38.710Z,101845.00
2022-10-06T08:25:09.968Z,101852.00
2022-10-06T08:27:37.737Z,101871.00
2022-10-06T08:30:06.177Z,101882.00
2022-10-06T08:32:33.842Z,101882.00
2022-10-06T08:35:00.820Z,101892.00
2022-10-06T08:37:27.708Z,101895.00
2022-10-06T08:39:54.995Z,101899.00
2022-10-06T08:42:39.898Z,101904.00
2022-10-06T08:45:25.924Z,101900.00
2022-10-06T08:48:19.000Z,101918.00
2022-10-06T08:50:48.751Z,101919.00
2022-10-06T08:53:25.162Z,101937.00
2022-10-06T08:55:59.858Z,101938.00
2022-10-06T08:58:50.416Z,101939.00
2022-10-06T09:01:20.652Z,101948.00
2022-10-06T09:03:49.144Z,101960.00
2022-10-06T09:06:23.155Z,101969.00
2022-10-06T09:09:27.719Z,101989.00
2022-10-06T09:12:07.604Z,101980.00
2022-10-06T09:14:43.172Z,101986.00
2022-10-06T09:17:13.784Z,101995.00
2022-10-06T09:19:43.403Z,101990.00
2022-10-06T09:22:17.031Z,102015.00
2022-10-06T09:24:49.443Z,102016.00
2022-10-06T09:27:33.914Z,102007.00
2022-10-06T09:30:04.864Z,102017.00
2022-10-06T09:32:33.257Z,101997.00
2022-10-06T09:35:00.370Z,102016.00
2022-10-06T09:37:27.889Z,102013.00
2022-10-06T09:39:55.539Z,102026.00
2022-10-06T09:42:29.667Z,102023.00
2022-10-06T09:45:02.256Z,102029.00
2022-10-06T09:47:28.995Z,102025.00
2022-10-06T09:50:26.411Z,102031.00
2022-10-06T09:53:03.364Z,102039.00
2022-10-06T09:55:37.340Z,102052.00
2022-10-06T09:58:26.738Z,102057.00
2022-10-06T10:00:53.872Z,102054.00
2022-10-06T10:03:21.764Z,102064.00
2022-10-06T10:05:56.696Z,102067.00
2022-10-06T10:08:29.951Z,102081.00
2022-10-06T10:11:27.639Z,102060.00
2022-10-06T10:13:56.588Z,102095.00
2022-10-06T10:16:34.355Z,102089.00
2022-10-06T10:19:03.277Z,102113.00
2022-10-06T10:21:35.143Z,102102.00
2022-10-06T10:24:06.747Z,102121.00
2022-10-06T10:27:04.952Z,102146.00
2022-10-06T10:30:01.073Z,102138.00
2022-10-06T10:33:04.058Z,102149.00
2022-10-06T10:35:34.268Z,102157.00
2022-10-06T10:38:02.372Z,102154.00
2022-10-06T10:40:35.031Z,102142.00
2022-10-06T10:43:03.429Z,102162.00
2022-10-06T10:45:35.877Z,102143.00
2022-10-06T10:48:21.148Z,102156.00
2022-10-06T10:50:52.437Z,102158.00
2022-10-06T10:53:40.334Z,102157.00
2022-10-06T10:56:11.927Z,102152.00
2022-10-06T10:58:43.850Z,102161.00
2022-10-06T11:01:31.229Z,102154.00
2022-10-06T11:03:58.368Z,102155.00
2022-10-06T11:06:31.143Z,102155.00
2022-10-06T11:09:03.200Z,102171.00
2022-10-06T11:11:48.595Z,102176.00
2022-10-06T11:14:43.224Z,102163.00
2022-10-06T11:17:22.469Z,102163.00
2022-10-06T11:20:15.624Z,102179.00
2022-10-06T11:22:52.277Z,102190.00
2022-10-06T11:25:31.376Z,102195.00
2022-10-06T11:28:03.293Z,102208.00
2022-10-06T11:30:33.372Z,102199.00
2022-10-06T11:33:15.272Z,102213.00
2022-10-06T11:35:44.820Z,102217.00
2022-10-06T11:38:37.922Z,102186.00
2022-10-06T11:41:45.267Z,102194.00
2022-10-06T11:44:33.589Z,102210.00
2022-10-06T11:47:09.268Z,102206.00
2022-10-06T11:49:47.713Z,102212.00
2022-10-06T11:52:14.470Z,102218.00
2022-10-06T11:54:43.852Z,102205.00
2022-10-06T11:57:26.219Z,102206.00
2022-10-06T12:00:02.256Z,102222.00
2022-10-06T12:02:34.584Z,102204.00
2022-10-06T12:05:28.551Z,102215.00
2022-10-06T12:07:57.621Z,102206.00
2022-10-06T12:10:27.353Z,102223.00
2022-10-06T12:14:15.660Z,102221.00
2022-10-06T12:19:27.848Z,102236.00
2022-10-06T12:22:03.229Z,102242.00
2022-10-06T12:24:41.378Z,102254.00
2022-10-06T12:27:41.456Z,102251.00
2022-10-06T12:30:33.227Z,102225.00
2022-10-06T12:33:03.647Z,102252.00
2022-10-06T12:35:39.978Z,102264.00
2022-10-06T12:38:37.460Z,102261.00
2022-10-06T12:41:09.510Z,102288.00
2022-10-06T12:44:21.866Z,102270.00
2022-10-06T12:46:49.700Z,102254.00
2022-10-06T12:50:02.429Z,102249.00
2022-10-06T12:52:43.284Z,102260.00
2022-10-06T12:55:38.662Z,102274.00
2022-10-06T12:58:09.034Z,102280.00
2022-10-06T13:00:43.150Z,102274.00
2022-10-06T13:03:24.408Z,102273.00
2022-10-06T13:06:03.235Z,102303.00
2022-10-06T13:08:35.998Z,102285.00
2022-10-06T13:11:15.582Z,102277.00
2022-10-06T13:13:50.450Z,102278.00
2022-10-06T13:16:29.015Z,102295.00
2022-10-06T13:19:01.874Z,102291.00
2022-10-06T13:21:31.886Z,102297.00
2022-10-06T13:23:59.073Z,102281.00
2022-10-06T13:26:29.365Z,102270.00
2022-10-06T13:28:58.333Z,102279.00
2022-10-06T13:31:32.450Z,102263.00
2022-10-06T13:34:05.633Z,102251.00
2022-10-06T13:36:38.620Z,102286.00
2022-10-06T13:39:13.223Z,102292.00
2022-10-06T13:41:45.959Z,102301.00
2022-10-06T13:44:14.344Z,102312.00
2022-10-06T13:46:50.488Z,102319.00
2022-10-06T13:49:20.302Z,102299.00
2022-10-06T13:51:52.983Z,102319.00
2022-10-06T13:54:29.624Z,102304.00
2022-10-06T13:56:56.706Z,102294.00
2022-10-06T13:59:38.433Z,102323.00
2022-10-06T14:02:17.575Z,102293.00
2022-10-06T14:05:23.194Z,102310.00
2022-10-06T14:07:50.705Z,102311.00
2022-10-06T14:10:23.038Z,102335.00
2022-10-06T14:12:49.912Z,102301.00
2022-10-06T14:15:21.239Z,102314.00
2022-10-06T14:18:02.434Z,102354.00
2022-10-06T14:20:46.792Z,102340.00
2022-10-06T14:23:33.899Z,102337.00
2022-10-06T14:26:01.074Z,102308.00
2022-10-06T14:28:28.059Z,102326.00
2022-10-06T14:30:57.706Z,102329.00
2022-10-06T14:33:25.700Z,102338.00
2022-10-06T14:35:52.643Z,102350.00
2022-10-06T14:38:19.893Z,102352.00
2022-10-06T14:40:46.719Z,102338.00
2022-10-06T14:43:13.741Z,102331.00
2022-10-06T14:45:44.526Z,102345.00
2022-10-06T14:48:15.222Z,102371.00
2022-10-06T14:50:45.353Z,102334.00
2022-10-06T14:53:15.071Z,102357.00
2022-10-06T14:55:42.021Z,102348.00
2022-10-06T14:58:08.863Z,102346.00
2022-10-06T15:00:35.688Z,102354.00
2022-10-06T15:06:04.870Z,102347.00
2022-10-06T15:08:32.908Z,102349.00
2022-10-06T15:11:07.174Z,102339.00
2022-10-06T15:13:35.293Z,102332.00
2022-10-06T15:16:02.192Z,102325.00
2022-10-06T15:18:29.057Z,102321.00
2022-10-06T15:21:02.924Z,102317.00
2022-10-06T15:23:30.319Z,102286.00
2022-10-06T15:29:03.181Z,102291.00
2022-10-06T15:31:41.050Z,102297.00
2022-10-06T15:34:10.237Z,102298.00
2022-10-06T15:36:38.923Z,102290.00
2022-10-06T15:39:31.416Z,102269.00
2022-10-06T15:41:59.463Z,102279.00
2022-10-06T15:44:26.502Z,102260.00
2022-10-06T15:46:55.605Z,102278.00
2022-10-06T15:49:26.708Z,102278.00
2022-10-06T15:51:56.520Z,102273.00
2022-10-06T15:54:34.540Z,102270.00
2022-10-06T15:57:02.562Z,102274.00
2022-10-06T15:59:32.475Z,102271.00
2022-10-06T16:02:07.152Z,102254.00
2022-10-06T16:07:43.314Z,102250.00
2022-10-06T16:11:00.363Z,102263.00
2022-10-06T16:13:28.262Z,102255.00
2022-10-06T16:15:55.848Z,102246.00
2022-10-06T16:18:22.929Z,102245.00
2022-10-06T16:20:54.191Z,102253.00
2022-10-06T16:23:21.951Z,102251.00
2022-10-06T16:25:49.594Z,102254.00
2022-10-06T16:28:16.555Z,102261.00
2022-10-06T16:30:43.366Z,102246.00
2022-10-06T16:33:10.197Z,102259.00
2022-10-06T16:35:37.089Z,102256.00
2022-10-06T16:38:07.106Z,102267.00
2022-10-06T16:40:33.929Z,102254.00
2022-10-06T16:43:00.679Z,102265.00
2022-10-06T16:45:27.507Z,102261.00
2022-10-06T16:47:54.725Z,102263.00
2022-10-06T16:50:22.299Z,102265.00
2022-10-06T16:52:49.354Z,102271.00
2022-10-06T16:55:16.164Z,102267.00
2022-10-06T16:57:42.966Z,102268.00
2022-10-06T17:00:10.758Z,102272.00
2022-10-06T17:02:38.698Z,102278.00
2022-10-06T17:05:05.806Z,102271.00
2022-10-06T17:07:33.003Z,102263.00
2022-10-06T17:10:19.628Z,102268.00
2022-10-06T17:12:47.059Z,102259.00
2022-10-06T17:15:13.942Z,102257.00
2022-10-06T17:17:41.868Z,102261.00
2022-10-06T17:20:09.223Z,102265.00
2022-10-06T17:22:36.145Z,102261.00
2022-10-06T17:25:03.262Z,102259.00
2022-10-06T17:27:32.646Z,102261.00
2022-10-06T17:29:59.597Z,102263.00
2022-10-06T17:32:26.351Z,102269.00
2022-10-06T17:34:54.100Z,102255.00
2022-10-06T17:37:21.801Z,102263.00
2022-10-06T17:39:48.690Z,102266.00
2022-10-06T17:42:16.308Z,102262.00
2022-10-06T17:44:43.053Z,102259.00
2022-10-06T17:47:12.312Z,102258.00
2022-10-06T17:49:40.097Z,102264.00
2022-10-06T17:52:07.268Z,102253.00
2022-10-06T17:54:34.809Z,102266.00
2022-10-06T17:57:01.557Z,102252.00
2022-10-06T17:59:30.809Z,102253.00
2022-10-06T18:02:00.230Z,102251.00
2022-10-06T18:04:27.118Z,102249.00
2022-10-06T18:06:54.725Z,102260.00
2022-10-06T18:09:22.343Z,102246.00
2022-10-06T18:11:54.678Z,102249.00
2022-10-06T18:14:23.290Z,102250.00
2022-10-06T18:16:57.310Z,102260.00
2022-10-06T18:19:26.757Z,102267.00
2022-10-06T18:21:56.448Z,102266.00
2022-10-06T18:24:25.666Z,102264.00
2022-10-06T18:26:54.843Z,102263.00
2022-10-06T18:29:23.452Z,102267.00
2022-10-06T18:31:51.854Z,102260.00
2022-10-06T18:37:05.850Z,102273.00
2022-10-06T18:39:33.551Z,102272.00
2022-10-06T18:42:03.660Z,102271.00
2022-10-06T18:44:49.014Z,102268.00
2022-10-06T18:47:34.569Z,102254.00
2022-10-06T18:50:01.456Z,102274.00
2022-10-06T18:52:28.688Z,102279.00
2022-10-06T18:54:55.483Z,102267.00
2022-10-06T18:57:27.264Z,102272.00
2022-10-06T18:59:54.991Z,102284.00
2022-10-06T19:02:21.917Z,102276.00
2022-10-06T19:04:48.746Z,102276.00
2022-10-06T19:07:15.516Z,102275.00
2022-10-06T19:09:46.474Z,102273.00
2022-10-06T19:12:13.889Z,102265.00
2022-10-06T19:14:47.142Z,102266.00
2022-10-06T19:17:17.190Z,102272.00
2022-10-06T19:19:46.297Z,102270.00
2022-10-06T19:22:14.290Z,102272.00
2022-10-06T19:24:43.415Z,102279.00
2022-10-06T19:27:15.885Z,102282.00
2022-10-06T19:29:46.138Z,102289.00
2022-10-06T19:32:16.172Z,102276.00
2022-10-06T19:34:43.518Z,102280.00
2022-10-06T19:37:10.589Z,102280.00
2022-10-06T19:39:42.710Z,102283.00
2022-10-06T19:42:33.342Z,102288.00
2022-10-06T19:45:00.471Z,102286.00
2022-10-06T19:47:27.618Z,102279.00
2022-10-06T19:49:58.270Z,102278.00
2022-10-06T19:52:27.414Z,102286.00
2022-10-06T19:54:54.197Z,102283.00
2022-10-06T19:57:20.999Z,102285.00
2022-10-06T19:59:47.793Z,102296.00
2022-10-06T20:02:14.617Z,102294.00
2022-10-06T20:04:41.539Z,102295.00
2022-10-06T20:07:09.136Z,102286.00
2022-10-06T20:09:35.942Z,102288.00
2022-10-06T20:12:05.890Z,102286.00
2022-10-06T20:14:32.754Z,102285.00
2022-10-06T20:16:59.569Z,102290.00
2022-10-06T20:19:26.753Z,102281.00
2022-10-06T20:21:53.560Z,102277.00
2022-10-06T20:24:22.921Z,102274.00
2022-10-06T20:26:50.994Z,102270.00
2022-10-06T20:29:25.680Z,102277.00
2022-10-06T20:31:54.404Z,102279.00
2022-10-06T20:34:23.887Z,102285.00
2022-10-06T20:36:55.675Z,102275.00
2022-10-06T20:39:41.912Z,102281.00
2022-10-06T20:42:14.568Z,102277.00
2022-10-06T20:44:43.375Z,102283.00
2022-10-06T20:47:11.615Z,102278.00
2022-10-06T20:49:38.804Z,102281.00
2022-10-06T20:52:06.167Z,102294.00
2022-10-06T20:54:35.705Z,102282.00
2022-10-06T20:57:06.733Z,102278.00
2022-10-06T20:59:36.470Z,102276.00
2022-10-06T21:02:05.083Z,102273.00
2022-10-06T21:04:32.742Z,102282.00
2022-10-06T21:06:59.505Z,102283.00
2022-10-06T21:09:28.563Z,102298.00
2022-10-06T21:11:57.313Z,102288.00
2022-10-06T21:14:25.332Z,102286.00
2022-10-06T21:16:52.603Z,102281.00
2022-10-06T21:19:19.761Z,102279.00
2022-10-06T21:21:53.572Z,102271.00
2022-10-06T21:24:20.931Z,102269.00
2022-10-06T21:26:48.810Z,102269.00
2022-10-06T21:29:18.205Z,102269.00
2022-10-06T21:31:45.200Z,102270.00
2022-10-06T21:34:14.424Z,102265.00
2022-10-06T21:36:43.432Z,102271.00
2022-10-06T21:39:11.303Z,102260.00
2022-10-06T21:41:39.361Z,102268.00
2022-10-06T21:44:17.648Z,102263.00
2022-10-06T21:46:52.741Z,102268.00
2022-10-06T21:49:21.436Z,102272.00
2022-10-06T21:51:53.074Z,102279.00
2022-10-06T21:54:33.058Z,102280.00
2022-10-06T21:57:01.341Z,102273.00
2022-10-06T21:59:28.151Z,102275.00
2022-10-06T22:01:55.050Z,102261.00
2022-10-06T22:04:21.891Z,102269.00
2022-10-06T22:06:50.700Z,102257.00
2022-10-06T22:09:18.770Z,102260.00
2022-10-06T22:11:45.682Z,102253.00
2022-10-06T22:14:14.396Z,102254.00
2022-10-06T22:16:41.730Z,102252.00
2022-10-06T22:19:11.603Z,102248.00
2022-10-06T22:21:40.563Z,102241.00
2022-10-06T22:24:10.057Z,102247.00
2022-10-06T22:26:38.505Z,102244.00
2022-10-06T22:29:07.158Z,102239.00
2022-10-06T22:31:35.023Z,102238.00
2022-10-06T22:34:04.848Z,102237.00
2022-10-06T22:36:33.061Z,102240.00
2022-10-06T22:39:00.189Z,102232.00
2022-10-06T22:41:27.445Z,102233.00
2022-10-06T22:43:58.138Z,102237.00
2022-10-06T22:46:29.798Z,102230.00
2022-10-06T22:48:57.037Z,102232.00
2022-10-06T22:51:24.699Z,102222.00
2022-10-06T22:53:57.622Z,102222.00
2022-10-06T22:56:26.397Z,102211.00
2022-10-06T22:58:53.238Z,102212.00
2022-10-06T23:01:20.207Z,102212.00
2022-10-06T23:03:47.650Z,102211.00
2022-10-06T23:06:16.658Z,102211.00
2022-10-06T23:08:43.984Z,102205.00
2022-10-06T23:11:13.927Z,102204.00
2022-10-06T23:13:41.220Z,102207.00
2022-10-06T23:16:10.219Z,102197.00
2022-10-06T23:18:38.551Z,102201.00
2022-10-06T23:21:07.450Z,102196.00
2022-10-06T23:23:34.490Z,102194.00
2022-10-06T23:26:10.169Z,102188.00
2022-10-06T23:28:37.634Z,102190.00
2022-10-06T23:31:05.843Z,102188.00
2022-10-06T23:33:33.419Z,102177.00
2022-10-06T23:36:06.450Z,102176.00
2022-10-06T23:38:34.439Z,102186.00
2022-10-06T23:41:01.378Z,102176.00
2022-10-06T23:43:28.203Z,102173.00
2022-10-06T23:45:55.118Z,102170.00
2022-10-06T23:48:22.098Z,102160.00
2022-10-06T23:51:03.735Z,102168.00
2022-10-06T23:53:31.409Z,102169.00
2022-10-06T23:55:58.336Z,102166.00
2022-10-06T23:58:25.880Z,102159.00
